Tapes, Brazil
Current Conditions -  °F | °C
As of 11:00 PM on Friday 24 Oct 2014 (Local Time) from SBPA Reporting Station
Scattered Clouds Scattered Clouds  
Wind Chill: 70°   Ceiling: Unl
Heat Index: 70°   Visibility: 5mi
Dew Point: 66°   Wind: 12mph
Humidity: 88%   Direction: 120°ESE
Pressure: 29.94"   Gusts: NA
Location:  30.67°S, 51.4°W
Report Text: SBPA 250100Z 12010KT 8000 SCT010 21/19 Q1014
Loading
Personal Weather Stations






























Interactive Weather Map
Tropical Storm Tracking
New forecast layout! Learn more

10-Day Weather Forecast

Advertisements
Track Severe Weather on mobile